Have a Safe July 4th! 

Flight Track Log - Related Links

Times and Time Zones

All times are in EDT time to prevent confusion due to time zone crossing. See the UAL252 flight status page for this flight to view local times or setup timezone preferences in your user account.

Time Position Orientation Groundspeed Altitude Reporting Facility
EDT Latitude Longitude Course Direction KTS MPH feet Rate Location/Type
Wed 01:48:51 PM 33.9361 -118.4208 59° Northeast 159 183 31,000  Level Los Angeles Center
Wed 01:49:53 PM 33.9278 -118.4808 261° West 195 224 2,400 -12,435 Descending Los Angeles Center
Wed 01:50:55 PM 33.8939 -118.5542 241° Southwest 244 281 5,300 2,516 Climbing Los Angeles Center
Wed 01:51:00 PM 34.1274 -118.0786 59° Northeast  Level FlightAware Approximate
Wed 01:51:57 PM 33.8469 -118.5117 143° Southeast 251 289 7,600  Level Los Angeles Center
Wed 01:52:00 PM 34.1941 -117.9451 59° Northeast  Level FlightAware Approximate
Wed 01:52:59 PM 33.9014 -118.4506 43° Northeast 279 321 9,700  Level Los Angeles Center
Wed 01:53:00 PM 34.2719 -117.8229 59° Northeast  Level FlightAware Approximate
Wed 01:54:00 PM 34.3387 -117.6892 59° Northeast  Level FlightAware Approximate
Wed 01:54:02 PM 33.9667 -118.3781 43° Northeast 323 372 12,000  Level Los Angeles Center
Wed 01:55:16 PM 34.0342 -118.2556 56° Northeast 366 421 13,900 1,632 Climbing Los Angeles Center
Wed 01:56:18 PM 34.1003 -118.1403 55° Northeast 410 472 15,700 2,032 Climbing Los Angeles Center
Wed 01:57:20 PM 34.1797 -117.9978 56° Northeast 424 488 18,100 1,984 Climbing Los Angeles Center
Wed 01:58:22 PM 34.2486 -117.8767 55° Northeast 435 501 19,800 1,536 Climbing Los Angeles Center
Wed 01:59:25 PM 34.3197 -117.7494 56° Northeast 452 520 21,300 1,488 Climbing Los Angeles Center
Wed 02:00:27 PM 34.3956 -117.6100 57° Northeast 470 541 22,900 1,403 Climbing Los Angeles Center
Wed 02:01:29 PM 34.4694 -117.4775 56° Northeast 478 550 24,200 1,210 Climbing Los Angeles Center
Wed 02:02:31 PM 34.5497 -117.3447 54° Northeast 488 562 25,400 1,161 Climbing Los Angeles Center
Wed 02:03:33 PM 34.6431 -117.2175 48° Northeast 504 580 26,600 1,500 Climbing Los Angeles Center
Wed 02:04:35 PM 34.7569 -117.0578 49° Northeast 513 590 28,500 1,694 Climbing Los Angeles Center
Wed 02:05:37 PM 34.8469 -116.9314 49° Northeast 512 589 30,100 1,210 Climbing Los Angeles Center
Wed 02:06:39 PM 34.9397 -116.8008 49° Northeast 512 589 31,000 435 Climbing Los Angeles Center
Wed 02:07:41 PM 35.0322 -116.6694 49° Northeast 511 588 31,000  Level Los Angeles Center
Wed 02:08:44 PM 35.1253 -116.5378 49° Northeast 515 593 31,000  Level Los Angeles Center
Wed 02:09:46 PM 35.2358 -116.3819 49° Northeast 511 588 31,000  Level Los Angeles Center
Wed 02:10:48 PM 35.3286 -116.2506 49° Northeast 511 588 31,000  Level Los Angeles Center
Wed 02:11:50 PM 35.4186 -116.1167 50° Northeast 512 589 31,000  Level Los Angeles Center
Wed 02:12:52 PM 35.5133 -115.9861 48° Northeast 512 589 31,000 -44 Level Los Angeles Center
Wed 02:14:07 PM 35.6328 -115.8108 50° Northeast 508 585 30,900 -44 Descending Los Angeles Center
Wed 02:15:09 PM 35.7242 -115.6800 49° Northeast 506 582 30,900  Level Los Angeles Center
Wed 02:16:11 PM 35.8150 -115.5483 50° Northeast 505 581 30,900 48 Level Los Angeles Center
Wed 02:17:13 PM 35.9058 -115.4144 50° Northeast 512 589 31,000  Climbing Los Angeles Center
Wed 02:18:15 PM 36.0133 -115.2581 50° Northeast 502 578 30,900 97 Descending Los Angeles Center
Wed 02:19:17 PM 36.1058 -115.1314 48° Northeast 501 577 31,200 532 Climbing Los Angeles Center
Wed 02:20:19 PM 36.2119 -115.0153 41° Northeast 510 587 32,000 816 Climbing Los Angeles Center
Wed 02:21:22 PM 36.3097 -114.8892 46° Northeast 512 589 32,900 919 Climbing Los Angeles Center
Wed 02:22:23 PM 36.4283 -114.7306 47° Northeast 521 600 33,900 968 Climbing Los Angeles Center
Wed 02:23:26 PM 36.5225 -114.5944 49° Northeast 522 601 34,900 480 Climbing Los Angeles Center
Wed 02:24:28 PM 36.5994 -114.4439 57° Northeast 518 596 34,900  Level Los Angeles Center
Wed 02:25:29 PM 36.6603 -114.3222 58° Northeast 518 596 34,900  Level Los Angeles Center
Wed 02:26:32 PM 36.7453 -114.1531 58° Northeast 515 593 34,900  Level Los Angeles Center
Wed 02:27:34 PM 36.8267 -113.9931 58° Northeast 510 587 34,900  Level Los Angeles Center
Wed 02:28:36 PM 36.9114 -113.8250 58° Northeast 509 586 34,900  Level Los Angeles Center
Wed 02:29:38 PM 36.9872 -113.6753 58° Northeast 510 587 34,900 48 Level Los Angeles Center
Wed 02:30:41 PM 37.0636 -113.5253 57° Northeast 512 589 35,000 48 Climbing Los Angeles Center
Wed 02:31:43 PM 37.1539 -113.3439 58° Northeast 513 590 35,000  Level Los Angeles Center
Wed 02:32:45 PM 37.2294 -113.1919 58° Northeast 514 592 35,000  Level Los Angeles Center
Wed 02:33:47 PM 37.3044 -113.0400 58° Northeast 515 593 35,000  Level Los Angeles Center
Wed 02:34:49 PM 37.3792 -112.8892 58° Northeast 516 594 35,000  Level Los Angeles Center
Wed 02:35:55 PM 37.4656 -112.7086 59° Northeast 517 595 35,000  Level Salt Lake Center
Wed 02:36:57 PM 37.5394 -112.5586 58° Northeast 514 592 35,000 -48 Level Salt Lake Center
Wed 02:37:59 PM 37.6139 -112.4094 58° Northeast 510 587 34,900 -48 Descending Salt Lake Center
Wed 02:39:01 PM 37.6878 -112.2578 58° Northeast 510 587 34,900  Level Salt Lake Center
Wed 02:40:03 PM 37.7756 -112.0731 59° Northeast 512 589 34,900 48 Level Salt Lake Center
Wed 02:41:05 PM 37.8497 -111.9189 59° Northeast 516 594 35,000 48 Climbing Salt Lake Center
Wed 02:42:07 PM 37.9228 -111.7650 59° Northeast 513 590 35,000  Level Salt Lake Center
Wed 02:43:09 PM 37.9953 -111.6108 59° Northeast 510 587 35,000 -49 Level Salt Lake Center
Wed 02:44:10 PM 38.0683 -111.4572 59° Northeast 510 587 34,900 -49 Descending Salt Lake Center
Wed 02:45:12 PM 38.1400 -111.3014 60° Northeast 512 589 34,900 48 Level Salt Lake Center
Wed 02:46:14 PM 38.2264 -111.1161 59° Northeast 510 587 35,000 48 Climbing Salt Lake Center
Wed 02:47:16 PM 38.2989 -110.9617 59° Northeast 511 588 35,000  Level Salt Lake Center
Wed 02:48:18 PM 38.3703 -110.8053 60° Northeast 508 585 35,000 -71 Level Salt Lake Center
Wed 02:48:41 PM 38.3922 -110.7556 61° Northeast 507 583 34,900 -98 Descending Denver Center
Wed 02:49:19 PM 38.4344 -110.6528 62° Northeast 511 588 34,900 97 Level Salt Lake Center
Wed 02:49:43 PM 38.4569 -110.5700 71° East 510 587 35,000 70 Climbing Denver Center
Wed 02:50:45 PM 38.5006 -110.4044 71° East 512 589 35,000  Level Denver Center
Wed 02:51:23 PM 38.5336 -110.2992 68° East 508 585 35,000  Level Salt Lake Center
Wed 02:52:25 PM 38.5864 -110.1086 70° East 510 587 35,000  Level Salt Lake Center
Wed 02:52:48 PM 38.6014 -110.0531 71° East 509 586 35,000  Level Denver Center
Wed 02:53:26 PM 38.6319 -109.9467 70° East 507 583 35,000  Level Salt Lake Center
Wed 02:53:50 PM 38.6542 -109.8639 71° East 509 586 35,000 -70 Level Denver Center
Wed 02:54:52 PM 38.6986 -109.7031 70° East 503 579 34,900 -49 Descending Denver Center
Wed 02:55:53 PM 38.7425 -109.5372 71° East 514 592 34,900  Level Denver Center
Wed 02:56:55 PM 38.7944 -109.3486 70° East 506 582 34,900 48 Level Denver Center
Wed 02:57:57 PM 38.8403 -109.1867 70° East 505 581 35,000 48 Climbing Denver Center
Wed 02:58:59 PM 38.8914 -108.9989 71° East 502 578 35,000 -48 Level Denver Center
Wed 03:00:01 PM 38.9344 -108.8378 71° East 499 574 34,900 -49 Descending Denver Center
Wed 03:01:02 PM 38.9861 -108.6514 70° East 498 573 34,900  Level Denver Center
Wed 03:02:04 PM 39.0289 -108.4903 71° East 498 573 34,900 48 Level Denver Center
Wed 03:03:06 PM 39.0794 -108.2983 71° East 508 585 35,000 48 Climbing Denver Center
Wed 03:04:08 PM 39.1239 -108.1336 71° East 508 585 35,000 -49 Level Denver Center
Wed 03:05:09 PM 39.1733 -107.9428 71° East 506 582 34,900  Descending Denver Center
Wed 03:06:11 PM 39.2150 -107.7797 72° East 503 579 35,000 48 Climbing Denver Center
Wed 03:07:13 PM 39.2653 -107.5869 71° East 509 586 35,000  Level Denver Center
Wed 03:08:14 PM 39.2997 -107.4489 72° East 509 586 35,000  Level Denver Center
Wed 03:09:16 PM 39.3489 -107.2550 72° East 508 585 35,000 -48 Level Denver Center
Wed 03:10:18 PM 39.3972 -107.0628 72° East 506 582 34,900  Descending Denver Center
Wed 03:11:20 PM 39.4353 -106.8981 73° East 500 575 35,000  Climbing Denver Center
Wed 03:12:22 PM 39.4681 -106.6997 78° East 504 580 34,900  Descending Denver Center
Wed 03:13:24 PM 39.4936 -106.5294 79° East 504 580 35,000  Climbing Denver Center
Wed 03:14:25 PM 39.5225 -106.3336 79° East 504 580 34,900  Descending Denver Center
Wed 03:15:27 PM 39.5492 -106.1553 79° East 502 578 35,000 48 Climbing Denver Center
Wed 03:16:29 PM 39.5756 -105.9661 80° East 498 573 35,000 -48 Level Denver Center
Wed 03:17:31 PM 39.6022 -105.7861 79° East 516 594 34,900 -48 Descending Denver Center
Wed 03:18:33 PM 39.6261 -105.6075 80° East 506 582 34,900  Level Denver Center
Wed 03:19:34 PM 39.6500 -105.4283 80° East 501 577 34,900 44 Level Denver Center
Wed 03:20:48 PM 39.6739 -105.2483 80° East 499 574 35,000  Climbing Denver Center
Wed 03:21:50 PM 39.7019 -105.0347 80° East 494 568 34,900 -48 Descending Denver Center
Wed 03:22:52 PM 39.7244 -104.8558 81° East 500 575 34,900 48 Level Denver Center
Wed 03:23:54 PM 39.7531 -104.6744 78° East 506 582 35,000 48 Climbing Denver Center
Wed 03:24:56 PM 39.7711 -104.5275 81° East 491 565 35,000 -48 Level Denver Center
Wed 03:25:58 PM 39.8006 -104.2792 81° East 487 560 34,900 -48 Descending Denver Center
Wed 03:27:00 PM 39.8239 -104.1008 80° East 492 566 34,900 48 Level Denver Center
Wed 03:28:02 PM 39.8428 -103.9228 82° East 493 567 35,000  Climbing Denver Center
Wed 03:29:03 PM 39.8656 -103.7453 80° East 486 559 34,900  Descending Denver Center
Wed 03:30:05 PM 39.8822 -103.6031 81° East 492 566 35,000 48 Climbing Denver Center
Wed 03:31:07 PM 39.9086 -103.3883 81° East 503 579 35,000  Level Denver Center
Wed 03:32:09 PM 39.9294 -103.2097 81° East 501 577 35,000 -48 Level Denver Center
Wed 03:33:11 PM 39.9539 -102.9958 81° East 497 572 34,900 -49 Descending Denver Center
Wed 03:34:12 PM 39.9706 -102.8531 81° East 498 573 34,900  Level Denver Center
Wed 03:35:14 PM 39.9956 -102.6286 82° East 501 577 34,900 48 Level Denver Center
Wed 03:36:16 PM 40.0139 -102.4561 82° East 502 578 35,000  Climbing Denver Center
Wed 03:37:30 PM 40.0364 -102.2550 82° East 503 579 34,900  Descending Denver Center
Wed 03:38:32 PM 40.0583 -102.0522 82° East 507 583 35,000 48 Climbing Denver Center
Wed 03:39:34 PM 40.0803 -101.8475 82° East 510 587 35,000  Level Denver Center
Wed 03:40:35 PM 40.0983 -101.6731 82° East 509 586 35,000 -49 Level Denver Center
Wed 03:41:37 PM 40.1181 -101.4700 83° East 506 582 34,900 -48 Descending Denver Center
Wed 03:42:39 PM 40.1358 -101.2969 82° East 505 581 34,900  Level Denver Center
Wed 03:43:41 PM 40.1553 -101.0961 83° East 503 579 34,900  Level Denver Center
Wed 03:44:42 PM 40.1722 -100.9247 83° East 501 577 34,900 49 Level Denver Center
Wed 03:45:44 PM 40.1911 -100.7219 83° East 505 581 35,000 48 Climbing Denver Center
Wed 03:46:46 PM 40.2058 -100.5486 84° East 504 580 35,000  Level Denver Center
Wed 03:47:47 PM 40.2094 -100.3722 88° East 507 583 35,000 -49 Level Denver Center
Wed 03:48:49 PM 40.2139 -100.1678 88° East 505 581 34,900 -44 Descending Denver Center
Wed 03:50:03 PM 40.2178 -99.9925 88° East 506 582 34,900  Level Denver Center
Wed 03:51:05 PM 40.2219 -99.7558 89° East 505 581 34,900 49 Level Denver Center
Wed 03:52:06 PM 40.2250 -99.5714 89° East 509 586 35,000 49 Climbing Denver Center
Wed 03:53:08 PM 40.2281 -99.3861 89° East 510 587 35,000  Level Denver Center
Wed 03:54:10 PM 40.2314 -99.2014 89° East 511 588 35,000  Level Denver Center
Wed 03:55:11 PM 40.2331 -99.0189 89° East 506 582 35,000 -54 Level Denver Center
Wed 03:56:02 PM 40.2350 -98.8386 89° East 504 580 34,900 -53 Descending Minneapolis Center
Wed 03:57:04 PM 40.2367 -98.6544 89° East 507 583 34,900  Level Minneapolis Center
Wed 03:58:05 PM 40.2381 -98.4731 89° East 504 580 34,900  Level Minneapolis Center
Wed 03:59:07 PM 40.2389 -98.2908 90° East 504 580 34,900  Level Minneapolis Center
Wed 04:00:09 PM 40.2403 -98.1103 89° East 500 575 34,900 48 Level Minneapolis Center
Wed 04:01:11 PM 40.2406 -97.8908 90° East 503 579 35,000 48 Climbing Minneapolis Center
Wed 04:02:13 PM 40.2411 -97.7078 90° East 504 580 35,000 -48 Level Minneapolis Center
Wed 04:03:15 PM 40.2417 -97.5256 90° East 503 579 34,900  Descending Minneapolis Center
Wed 04:04:16 PM 40.2419 -97.3425 90° East 504 580 35,000 49 Climbing Minneapolis Center
Wed 04:05:18 PM 40.2408 -97.1672 90° East 505 581 35,000  Level Minneapolis Center
Wed 04:06:20 PM 40.2406 -96.9836 90° East 506 582 35,000  Level Minneapolis Center
Wed 04:07:22 PM 40.2378 -96.7628 91° East 507 583 35,000 -48 Level Minneapolis Center
Wed 04:08:24 PM 40.2369 -96.5797 90° East 505 581 34,900 -48 Descending Minneapolis Center
Wed 04:09:26 PM 40.2353 -96.3992 91° East 502 578 34,900  Level Minneapolis Center
Wed 04:10:28 PM 40.2339 -96.2178 91° East 501 577 34,900 48 Level Minneapolis Center
Wed 04:11:30 PM 40.2314 -96.0361 91° East 501 577 35,000  Climbing Minneapolis Center
Wed 04:12:32 PM 40.2283 -95.8531 91° East 505 581 34,900  Descending Minneapolis Center
Wed 04:13:34 PM 40.2256 -95.6350 91° East 503 579 35,000 48 Climbing Minneapolis Center
Wed 04:14:36 PM 40.2228 -95.4550 91° East 500 575 35,000 -49 Level Minneapolis Center
Wed 04:15:37 PM 40.2189 -95.2758 92° East 497 572 34,900  Descending Minneapolis Center
Wed 04:16:39 PM 40.2167 -95.0953 91° East 498 573 35,000  Climbing Minneapolis Center
Wed 04:17:41 PM 40.2114 -94.9139 92° East 500 575 34,900 -48 Descending Minneapolis Center
Wed 04:18:43 PM 40.2086 -94.7331 91° East 499 574 34,900 48 Level Minneapolis Center
Wed 04:19:45 PM 40.2033 -94.5292 92° East 501 577 35,000 48 Climbing Minneapolis Center
Wed 04:20:47 PM 40.1969 -94.3469 93° East 503 579 35,000  Level Minneapolis Center
Wed 04:21:49 PM 40.1936 -94.1658 91° East 504 580 35,000  Level Minneapolis Center
Wed 04:22:51 PM 40.1864 -93.9481 92° East 505 581 35,000 -48 Level Minneapolis Center
Wed 04:23:53 PM 40.1803 -93.7681 92° East 501 577 34,900 -48 Descending Minneapolis Center
Wed 04:24:55 PM 40.1739 -93.5878 93° East 502 578 34,900  Level Minneapolis Center
Wed 04:25:57 PM 40.1672 -93.4069 93° East 504 580 34,900 48 Level Minneapolis Center
Wed 04:26:59 PM 40.1594 -93.2269 93° East 502 578 35,000 48 Climbing Minneapolis Center
Wed 04:28:01 PM 40.1517 -93.0111 93° East 502 578 35,000 -48 Level Minneapolis Center
Wed 04:29:03 PM 40.1433 -92.8336 93° East 498 573 34,900 -48 Descending Minneapolis Center
Wed 04:30:05 PM 40.1364 -92.6550 93° East 503 579 34,900  Level Minneapolis Center
Wed 04:31:18 PM 40.1208 -92.4433 95° East 503 579 34,900 44 Level Kansas City Center
Wed 04:32:21 PM 40.1022 -92.2311 96° East 501 577 35,000 48 Climbing Kansas City Center
Wed 04:33:22 PM 40.0861 -92.0572 97° East 493 567 35,000 -48 Level Kansas City Center
Wed 04:34:26 PM 40.0694 -91.8847 97° East 486 559 34,900 -48 Descending Kansas City Center
Wed 04:35:27 PM 40.0536 -91.7119 97° East 485 558 34,900  Level Kansas City Center
Wed 04:36:29 PM 40.0369 -91.5406 97° East 482 555 34,900 48 Level Kansas City Center
Wed 04:37:32 PM 40.0183 -91.3339 97° East 483 556 35,000 48 Climbing Kansas City Center
Wed 04:38:34 PM 39.9986 -91.1614 98° East 485 558 35,000  Level Kansas City Center
Wed 04:39:34 PM 39.9825 -90.9881 97° East 486 559 35,000  Level Kansas City Center
Wed 04:40:38 PM 39.9631 -90.7931 97° East 483 556 35,000 -48 Level Kansas City Center
Wed 04:41:39 PM 39.9442 -90.6194 98° East 485 558 34,900 -48 Descending Kansas City Center
Wed 04:42:43 PM 39.9256 -90.4467 98° East 485 558 34,900  Level Kansas City Center
Wed 04:43:44 PM 39.9069 -90.2733 98° East 485 558 34,900 50 Level Kansas City Center
Wed 04:44:44 PM 39.8875 -90.0983 98° East 488 562 35,000 48 Climbing Kansas City Center
Wed 04:45:48 PM 39.8675 -89.9219 98° East 493 567 35,000 144 Level Kansas City Center
Wed 04:46:49 PM 39.8439 -89.7142 98° East 489 563 35,300 624 Climbing Kansas City Center
Wed 04:47:53 PM 39.8403 -89.5375 91° East 493 567 36,300 816 Climbing Kansas City Center
Wed 04:48:54 PM 39.8417 -89.3611 89° East 492 566 37,000 295 Climbing Kansas City Center
Wed 04:49:55 PM 39.8422 -89.1853 90° East 490 564 36,900  Descending Kansas City Center
Wed 04:50:59 PM 39.8422 -89.0094 90° East 489 563 37,000 48 Climbing Kansas City Center
Wed 04:51:59 PM 39.8431 -88.7967 90° East 491 565 37,000  Level Kansas City Center
Wed 04:53:02 PM 39.8419 -88.6208 90° East 489 563 37,000 -49 Level Kansas City Center
Wed 04:54:02 PM 39.8428 -88.4444 90° East 489 563 36,900 -48 Descending Kansas City Center
Wed 04:55:06 PM 39.8403 -88.2681 91° East 489 563 36,900 45 Level Kansas City Center
Wed 04:56:15 PM 39.8381 -88.0731 91° East 489 563 37,000 46 Climbing Indianapolis Center
Wed 04:57:17 PM 39.8369 -87.8617 90° East 489 563 37,000  Level Indianapolis Center
Wed 04:58:19 PM 39.8358 -87.6864 90° East 488 562 37,000 -48 Level Indianapolis Center
Wed 04:59:21 PM 39.8347 -87.5136 90° East 480 552 36,900 -48 Descending Indianapolis Center
Wed 05:00:24 PM 39.8322 -87.3394 91° East 481 554 36,900  Level Indianapolis Center
Wed 05:01:26 PM 39.8289 -87.1667 91° East 480 552 36,900  Level Indianapolis Center
Wed 05:02:28 PM 39.8261 -86.9592 91° East 481 554 36,900  Level Indianapolis Center
Wed 05:03:30 PM 39.8228 -86.7844 91° East 483 556 36,900 48 Level Indianapolis Center
Wed 05:04:32 PM 39.8200 -86.6094 91° East 483 556 37,000 48 Climbing Indianapolis Center
Wed 05:05:34 PM 39.8183 -86.4331 91° East 486 559 37,000 -48 Level Indianapolis Center
Wed 05:06:36 PM 39.8369 -86.2575 82° East 490 564 36,900  Descending Indianapolis Center
Wed 05:07:38 PM 39.8772 -86.0764 74° East 492 566 37,000 48 Climbing Indianapolis Center
Wed 05:08:40 PM 39.9128 -85.9061 75° East 487 560 37,000  Level Indianapolis Center
Wed 05:09:42 PM 39.9481 -85.7367 75° East 486 559 37,000  Level Indianapolis Center
Wed 05:10:44 PM 39.9831 -85.5683 75° East 483 556 37,000  Level Indianapolis Center
Wed 05:11:46 PM 40.0247 -85.3672 75° East 478 550 37,000 -48 Level Indianapolis Center
Wed 05:12:48 PM 40.0581 -85.2028 75° East 471 542 36,900 -48 Descending Indianapolis Center
Wed 05:13:51 PM 40.0911 -85.0394 75° East 466 536 36,900  Level Indianapolis Center
Wed 05:14:52 PM 40.1269 -84.8653 75° East 465 535 36,900  Level Indianapolis Center
Wed 05:15:54 PM 40.1589 -84.6972 76° East 469 540 36,900  Level Indianapolis Center
Wed 05:16:56 PM 40.1975 -84.5314 73° East 474 545 36,900  Level Indianapolis Center
Wed 05:17:58 PM 40.2633 -84.3822 60° Northeast 470 541 36,900  Level Indianapolis Center
Wed 05:19:00 PM 40.3250 -84.2317 62° Northeast 465 535 36,900  Level Indianapolis Center
Wed 05:20:02 PM 40.3883 -84.0803 61° Northeast 467 537 36,900  Level Indianapolis Center
Wed 05:21:04 PM 40.4647 -83.9047 60° Northeast 468 539 36,900  Level Indianapolis Center
Wed 05:22:06 PM 40.5286 -83.7519 61° Northeast 470 541 36,900  Level Indianapolis Center
Wed 05:23:09 PM 40.5917 -83.6033 61° Northeast 462 532 36,900  Level Indianapolis Center
Wed 05:24:11 PM 40.6556 -83.4539 61° Northeast 461 531 36,900  Level Indianapolis Center
Wed 05:25:13 PM 40.7169 -83.3044 62° Northeast 459 528 36,900  Level Indianapolis Center
Wed 05:26:15 PM 40.7817 -83.1478 61° Northeast 448 516 36,900  Level Indianapolis Center
Wed 05:27:17 PM 40.8414 -83.0025 61° Northeast 447 514 36,900  Level Indianapolis Center
Wed 05:28:19 PM 40.9022 -82.8575 61° Northeast 447 514 36,900  Level Indianapolis Center
Wed 05:28:43 PM 40.9211 -82.8061 64° Northeast 445 512 36,900 71 Level Cleveland Center
Wed 05:29:43 PM 40.9822 -82.6597 61° Northeast 450 518 37,000 50 Climbing Cleveland Center
Wed 05:30:43 PM 41.0408 -82.5158 62° Northeast 438 504 37,000  Level Cleveland Center
Wed 05:31:43 PM 41.1017 -82.3686 61° Northeast 443 510 37,000  Level Cleveland Center
Wed 05:32:43 PM 41.1519 -82.2183 66° East 448 516 37,000  Level Cleveland Center
Wed 05:33:43 PM 41.1878 -82.0317 76° East 449 517 37,000 -50 Level Cleveland Center
Wed 05:34:43 PM 41.2189 -81.8722 75° East 454 522 36,900 -50 Descending Cleveland Center
Wed 05:35:43 PM 41.2478 -81.7044 77° East 454 522 36,900  Level Cleveland Center
Wed 05:36:43 PM 41.2764 -81.5419 77° East 449 517 36,900  Level Cleveland Center
Wed 05:37:43 PM 41.3006 -81.3875 78° East 458 527 36,900 50 Level Cleveland Center
Wed 05:38:43 PM 41.3286 -81.2219 77° East 464 534 37,000 50 Climbing Cleveland Center
Wed 05:39:43 PM 41.3586 -81.0533 77° East 464 534 37,000 -50 Level Cleveland Center
Wed 05:40:43 PM 41.3864 -80.8875 77° East 464 534 36,900 -50 Descending Cleveland Center
Wed 05:41:43 PM 41.4181 -80.7022 77° East 470 541 36,900 50 Level Cleveland Center
Wed 05:42:43 PM 41.4450 -80.5333 78° East 463 533 37,000 50 Climbing Cleveland Center
Wed 05:43:43 PM 41.4742 -80.3614 77° East 469 540 37,000  Level Cleveland Center
Wed 05:44:43 PM 41.5050 -80.1894 76° East 469 540 37,000  Level Cleveland Center
Wed 05:45:43 PM 41.5314 -80.0200 78° East 469 540 37,000 -50 Level Cleveland Center
Wed 05:46:43 PM 41.5553 -79.8506 79° East 469 540 36,900 -50 Descending Cleveland Center
Wed 05:47:43 PM 41.5814 -79.6950 77° East 469 540 36,900  Level Cleveland Center
Wed 05:48:43 PM 41.6092 -79.5222 78° East 469 540 36,900  Level Cleveland Center
Wed 05:49:43 PM 41.6367 -79.3525 78° East 469 540 36,900 50 Level Cleveland Center
Wed 05:50:43 PM 41.6469 -79.1742 86° East 469 540 37,000 50 Climbing Cleveland Center
Wed 05:51:43 PM 41.6322 -78.9914 96° East 476 548 37,000  Level Cleveland Center
Wed 05:52:43 PM 41.6128 -78.8111 98° East 476 548 37,000 -400 Level Cleveland Center
Wed 05:53:43 PM 41.5911 -78.6286 99° East 481 554 36,200 -900 Descending Cleveland Center
Wed 05:54:43 PM 41.5711 -78.4433 98° East 486 559 35,200 -1,150 Descending Cleveland Center
Wed 05:55:43 PM 41.5467 -78.2608 100° East 493 567 33,900 -1,213 Descending Cleveland Center
Wed 05:57:41 PM 41.5028 -77.9067 99° East 487 560 31,600 -1,006 Descending New York Center
Wed 05:58:42 PM 41.4797 -77.7325 100° East 481 554 30,900 -885 Descending New York Center
Wed 05:59:43 PM 41.4547 -77.5556 101° East 470 541 29,800 -992 Descending New York Center
Wed 06:00:43 PM 41.4286 -77.3869 102° East 475 547 28,900 -400 Descending New York Center
Wed 06:01:43 PM 41.4028 -77.2128 101° East 475 547 29,000  Climbing New York Center
Wed 06:02:41 PM 41.3769 -77.0361 101° East 475 547 28,900 -864 Descending New York Center
Wed 06:03:41 PM 41.3506 -76.8594 101° East 475 547 27,300 -1,736 Descending New York Center
Wed 06:04:42 PM 41.3136 -76.6875 106° East 475 547 25,400 -1,869 Descending New York Center
Wed 06:05:43 PM 41.2694 -76.5264 110° East 475 547 23,500 -1,866 Descending New York Center
Wed 06:06:41 PM 41.2269 -76.3683 110° East 469 540 21,700 -1,800 Descending New York Center
Wed 06:07:43 PM 41.1842 -76.2131 110° East 450 518 19,900 -1,869 Descending New York Center
Wed 06:08:43 PM 41.1506 -76.0836 109° East 429 494 17,900 -2,067 Descending New York Center
Wed 06:09:42 PM 41.1075 -75.9261 110° East 418 481 15,800 -1,966 Descending New York Center
Wed 06:10:42 PM 41.0697 -75.7856 110° East 413 475 14,000 -1,388 Descending New York Center
Wed 06:11:43 PM 41.0353 -75.6619 110° East 403 464 13,000 -500 Descending New York Center
Wed 06:12:42 PM 40.9956 -75.5133 109° East 394 453 13,000 -150 Level New York Center
Wed 06:13:43 PM 40.9628 -75.3956 110° East 388 447 12,700 -958 Descending New York Center
Wed 06:14:41 PM 40.9239 -75.2667 112° Southeast 362 417 11,100 -1,424 Descending New York Center
Wed 06:15:41 PM 40.8931 -75.1494 109° East 347 399 9,900 -1,240 Descending New York Center
Wed 06:16:42 PM 40.8614 -75.0403 111° Southeast 327 376 8,600 -1,438 Descending New York Center
Wed 06:17:42 PM 40.8336 -74.9453 111° Southeast 313 360 7,000 -1,100 Descending New York Center
Wed 06:18:42 PM 40.8250 -74.8350 96° East 303 349 6,400 -496 Descending New York Center
Wed 06:19:43 PM 40.8228 -74.7197 91° East 286 329 6,000 -202 Descending New York Center
Wed 06:20:41 PM 40.8406 -74.6219 76° East 274 315 6,000 -300 Level New York Center
Wed 06:21:23 PM 40.8000 -74.5667 134° Southeast 293 337 5,500 -625 Descending New York TRACON
Wed 06:22:17 PM 40.7333 -74.5500 169° South 281 323 5,000 -263 Descending New York TRACON
Wed 06:23:17 PM 40.6500 -74.5167 163° South 281 323 5,000  Level New York TRACON
Wed 06:24:17 PM 40.5833 -74.4833 159° South 270 311 5,000 -450 Level New York TRACON
Wed 06:25:17 PM 40.5167 -74.4333 150° Southeast 254 292 4,100 -500 Descending New York TRACON
Wed 06:26:17 PM 40.4833 -74.3667 123° Southeast 231 266 4,000 -100 Descending New York TRACON
Wed 06:27:17 PM 40.5167 -74.3000 57° Northeast 201 231 3,900 -650 Descending New York TRACON
Wed 06:28:17 PM 40.5500 -74.2500 49° Northeast 190 219 2,700 -1,200 Descending New York TRACON

Login

Don't have an account? Register now (free) for customized features, flight alerts, and more!